Time;durP1;ratioP1;P1;durP2;ratioP2;P2;SDS_P1;SDS_P2;PMS_P1;PMS_P2;Temp;Humidity;BMP_temperature;BMP_pressure;BME280_temperature;BME280_humidity;BME280_pressure;Samples;Min_cycle;Max_cycle;Signal;HPM_P1;HPM_P2
2023/06/28 00:03:53;;;;;;;;;;;22.10;62.00;;;21.49;52.76;99963.47;10248497;28;2013;-71
2023/06/28 00:08:48;;;;;;;;;;;22.10;62.10;;;21.49;52.63;99971.41;10248714;28;819;-71
2023/06/28 00:13:43;;;;;;;;;;;22.10;62.10;;;21.50;52.69;99967.81;10248294;28;887;-71
2023/06/28 00:18:39;;;;;;;;;;;22.10;62.10;;;21.49;52.59;99966.09;10248343;28;984;-71
2023/06/28 00:23:34;;;;;;;;;;;22.10;62.20;;;21.47;52.68;99971.50;10248596;28;1902;-71
2023/06/28 00:28:30;;;;;;;;;;;22.10;62.20;;;21.48;52.69;99975.00;10247723;28;785;-71
2023/06/28 00:33:25;;;;;;;;;;;22.10;62.30;;;21.48;52.70;99975.00;10247254;28;1107;-71
2023/06/28 00:38:20;;;;;;;;;;;22.00;62.30;;;21.47;52.87;99974.13;10246789;28;876;-71
2023/06/28 00:43:16;;;;;;;;;;;22.10;62.40;;;21.47;52.79;99974.13;10247771;28;1914;-71
2023/06/28 00:48:11;;;;;;;;;;;22.10;62.40;;;21.47;52.68;99973.28;10246332;28;802;-71
2023/06/28 00:53:07;;;;;;;;;;;22.10;62.50;;;21.45;52.74;99976.00;10247630;28;904;-71
2023/06/28 00:58:02;;;;;;;;;;;22.10;62.50;;;21.45;52.89;99968.06;10246832;28;767;-71
2023/06/28 01:03:00;;;;;;;;;;;22.10;62.50;;;21.44;52.73;99974.31;10246905;28;1911;-71
2023/06/28 01:07:56;;;;;;;;;;;22.10;62.60;;;21.44;52.85;99984.91;10246145;28;910;-71
2023/06/28 01:12:51;;;;;;;;;;;22.00;62.50;;;21.44;52.72;99991.06;10245896;28;1022;-71
2023/06/28 01:17:47;;;;;;;;;;;22.10;62.60;;;21.43;52.87;99986.72;10245804;28;866;-71
2023/06/28 01:22:43;;;;;;;;;;;22.00;62.60;;;21.42;52.76;99985.00;10245546;28;1969;-71
2023/06/28 01:27:42;;;;;;;;;;;22.00;62.60;;;21.41;52.71;99985.94;10246050;28;927;-71
2023/06/28 01:32:37;;;;;;;;;;;22.00;62.60;;;21.42;52.87;99982.34;10245204;28;1262;-71
2023/06/28 01:37:33;;;;;;;;;;;22.00;62.60;;;21.42;52.91;99992.09;10245744;28;869;-71
2023/06/28 01:42:28;;;;;;;;;;;22.00;62.60;;;21.40;52.94;99984.22;10244836;28;1910;-71
2023/06/28 01:47:24;;;;;;;;;;;22.00;62.70;;;21.40;52.89;99991.31;10244246;28;842;-71
2023/06/28 01:52:19;;;;;;;;;;;22.00;62.70;;;21.40;52.91;99993.97;10245279;28;870;-71
2023/06/28 01:57:14;;;;;;;;;;;22.00;62.80;;;21.39;52.80;99989.63;10244564;28;940;-71
2023/06/28 02:02:10;;;;;;;;;;;22.00;62.80;;;21.38;52.90;99980.81;10244268;28;1910;-71
2023/06/28 02:07:06;;;;;;;;;;;22.00;62.80;;;21.38;52.67;99994.06;10245324;28;802;-71
2023/06/28 02:12:01;;;;;;;;;;;22.00;62.80;;;21.38;52.98;100001.19;10244407;28;915;-71
2023/06/28 02:16:57;;;;;;;;;;;22.00;62.90;;;21.37;52.88;99992.31;10244091;28;941;-71
2023/06/28 02:21:52;;;;;;;;;;;22.00;62.90;;;21.35;52.89;99986.25;10244271;28;1906;-71
2023/06/28 02:26:47;;;;;;;;;;;22.00;62.90;;;21.36;52.81;99992.41;10226256;28;818;-71
2023/06/28 02:31:43;;;;;;;;;;;21.90;62.80;;;21.35;52.92;99988.91;10243691;28;1196;-71
2023/06/28 02:36:38;;;;;;;;;;;21.90;62.90;;;21.34;52.94;99989.81;10243739;28;802;-71
2023/06/28 02:41:34;;;;;;;;;;;21.90;62.90;;;21.34;53.00;99989.81;10243582;28;1914;-71
2023/06/28 02:46:29;;;;;;;;;;;21.90;62.90;;;21.33;53.04;99981.97;10243663;28;893;-71
2023/06/28 02:51:24;;;;;;;;;;;22.00;63.00;;;21.33;53.08;99984.63;10243799;28;853;-71
2023/06/28 02:56:23;;;;;;;;;;;21.90;62.90;;;21.32;52.97;99985.53;10243419;28;882;-71
2023/06/28 03:01:20;;;;;;;;;;;21.90;62.90;;;21.32;52.96;100009.41;10243439;28;1918;-71
2023/06/28 03:06:15;;;;;;;;;;;21.90;63.00;;;21.30;53.06;99993.59;10243114;28;863;-71
2023/06/28 03:11:11;;;;;;;;;;;21.90;63.00;;;21.30;53.03;99995.38;10250374;28;775;-71
2023/06/28 03:16:07;;;;;;;;;;;21.90;63.00;;;21.29;52.98;99991.88;10251045;28;922;-71
2023/06/28 03:21:03;;;;;;;;;;;21.90;63.10;;;21.29;53.14;99996.31;10250237;28;1964;-71
2023/06/28 03:25:58;;;;;;;;;;;21.90;63.10;;;21.28;53.06;99992.81;10250745;28;886;-71
2023/06/28 03:30:54;;;;;;;;;;;21.90;63.10;;;21.27;53.10;99990.25;10249763;28;1177;-71
2023/06/28 03:35:49;;;;;;;;;;;21.90;63.10;;;21.27;53.07;99982.28;10249290;28;898;-71
2023/06/28 03:40:44;;;;;;;;;;;21.90;63.10;;;21.26;53.11;99976.13;10249486;28;1977;-71
2023/06/28 03:45:40;;;;;;;;;;;21.80;63.00;;;21.26;53.05;99980.59;10249388;28;788;-71
2023/06/28 03:50:35;;;;;;;;;;;21.80;63.10;;;21.23;53.10;99977.16;10249834;28;864;-71
2023/06/28 03:55:31;;;;;;;;;;;21.90;63.30;;;21.24;53.08;99972.69;10248431;28;1008;-71
2023/06/28 04:00:26;;;;;;;;;;;21.80;63.20;;;21.22;53.17;99980.75;10249386;28;1973;-71
2023/06/28 04:05:22;;;;;;;;;;;21.80;63.30;;;21.21;53.03;99984.31;10248732;28;869;-71
2023/06/28 04:10:17;;;;;;;;;;;21.80;63.30;;;21.22;53.22;99979.88;10248576;28;756;-71
2023/06/28 04:15:12;;;;;;;;;;;21.80;63.40;;;21.20;53.22;99977.31;10248859;28;830;-71
2023/06/28 04:20:08;;;;;;;;;;;21.80;63.60;;;21.20;53.30;99973.81;10247544;28;1906;-71
2023/06/28 04:25:03;;;;;;;;;;;21.80;63.70;;;21.19;53.19;99980.03;10247405;28;922;-71
2023/06/28 04:29:59;;;;;;;;;;;21.80;63.70;;;21.18;53.22;99979.19;10248405;28;851;-70
2023/06/28 04:34:55;;;;;;;;;;;21.80;63.90;;;21.16;53.34;99975.75;10248528;28;1139;-70
2023/06/28 04:39:50;;;;;;;;;;;21.80;64.00;;;21.16;53.32;99986.38;10247285;28;1906;-71
2023/06/28 04:44:49;;;;;;;;;;;21.70;63.90;;;21.16;53.21;99978.41;10247153;28;787;-71
2023/06/28 04:49:45;;;;;;;;;;;21.70;64.00;;;21.15;53.18;99982.00;10247755;28;913;-71
2023/06/28 04:54:41;;;;;;;;;;;21.70;64.10;;;21.14;53.26;99980.31;10246683;28;874;-71
2023/06/28 04:59:37;;;;;;;;;;;21.80;64.30;;;21.14;53.47;99982.09;10247252;28;1973;-71
2023/06/28 05:04:32;;;;;;;;;;;21.70;64.40;;;21.13;53.20;99989.19;10246393;28;864;-71
2023/06/28 05:09:27;;;;;;;;;;;21.70;64.70;;;21.11;53.29;99977.81;10246158;28;1082;-71
2023/06/28 05:14:24;;;;;;;;;;;21.70;64.90;;;21.12;53.43;99983.97;10245996;28;1133;-67
2023/06/28 05:19:20;;;;;;;;;;;21.70;65.30;;;21.11;53.22;99975.16;10245735;28;947;-70
2023/06/28 05:24:15;;;;;;;;;;;21.70;65.60;;;21.10;53.23;99981.41;10245570;28;1979;-68
2023/06/28 05:29:11;;;;;;;;;;;21.70;65.80;;;21.09;53.46;99987.66;10244884;28;950;-69
2023/06/28 05:34:06;;;;;;;;;;;21.70;66.10;;;21.09;53.47;99979.69;10245713;28;1143;-68
2023/06/28 05:39:02;;;;;;;;;;;21.70;66.60;;;21.08;53.45;99985.94;10245732;28;807;-69
2023/06/28 05:43:57;;;;;;;;;;;21.60;67.00;;;21.07;53.41;99992.19;10245106;28;1967;-69
2023/06/28 05:48:53;;;;;;;;;;;21.60;67.60;;;21.07;53.51;99986.03;10244824;28;821;-70
2023/06/28 05:53:48;;;;;;;;;;;21.60;68.40;;;21.06;53.48;99979.84;10244669;28;834;-70
2023/06/28 05:58:44;;;;;;;;;;;21.60;69.10;;;21.04;53.46;99971.13;10243955;28;880;-70
2023/06/28 06:03:39;;;;;;;;;;;21.60;70.10;;;21.04;53.46;99973.78;10245517;28;1969;-70
2023/06/28 06:08:34;;;;;;;;;;;21.60;71.50;;;21.03;53.48;99982.66;10244557;28;869;-70
2023/06/28 06:13:30;;;;;;;;;;;21.60;72.80;;;21.02;53.55;99978.31;10244841;28;821;-69
2023/06/28 06:18:25;;;;;;;;;;;21.60;74.10;;;21.01;53.51;99980.13;10244749;28;837;-69
2023/06/28 06:23:21;;;;;;;;;;;21.50;75.70;;;21.00;53.62;99980.19;10243944;28;1910;-70
2023/06/28 06:28:16;;;;;;;;;;;21.60;78.30;;;21.01;53.69;99976.56;10244452;28;786;-70
2023/06/28 06:33:11;;;;;;;;;;;21.60;82.80;;;20.99;53.63;99967.88;10243953;28;1272;-70
2023/06/28 06:38:07;;;;;;;;;;;21.60;83.30;;;20.98;53.61;99967.00;10244354;28;858;-70
2023/06/28 06:43:02;;;;;;;;;;;21.60;84.90;;;20.98;53.65;99969.66;10244296;28;1906;-70
2023/06/28 06:47:58;;;;;;;;;;;;;;;20.97;53.75;99967.09;10251695;28;915;-70
2023/06/28 06:52:54;;;;;;;;;;;;;;;20.97;53.66;99959.16;10251592;28;964;-70
2023/06/28 06:57:50;;;;;;;;;;;;;;;20.96;53.53;99962.75;10251304;28;870;-69
2023/06/28 07:02:46;;;;;;;;;;;;;;;20.95;53.63;99968.97;10251057;28;1910;-70
2023/06/28 07:07:41;;;;;;;;;;;;;;;20.93;53.63;99963.75;10250888;28;825;-69
2023/06/28 07:12:37;;;;;;;;;;;;;;;20.92;53.72;99955.88;10250690;28;786;-67
2023/06/28 07:17:33;;;;;;;;;;;;;;;20.92;53.68;99969.97;10251120;28;822;-67
2023/06/28 07:22:29;;;;;;;;;;;;;;;20.93;53.82;99979.66;10250880;28;1961;-67
2023/06/28 07:27:25;;;;;;;;;;;;;;;20.93;53.77;99976.13;10250138;28;826;-67
2023/06/28 07:32:21;;;;;;;;;;;;;;;20.94;53.71;99986.66;10250293;28;1133;-67
2023/06/28 07:37:17;;;;;;;;;;;;;;;20.93;53.68;99979.66;10249781;28;912;-67
2023/06/28 07:42:13;;;;;;;;;;;;;;;20.93;53.81;99973.47;10249539;28;1972;-67
2023/06/28 07:47:08;;;;;;;;;;;;;;;20.93;53.96;99974.38;10249436;28;912;-67
2023/06/28 07:52:05;;;;;;;;;;;;;;;20.94;53.96;99977.88;10249797;28;858;-67
2023/06/28 07:57:01;;;;;;;;;;;;;;;20.92;53.85;99966.47;10248910;28;903;-67
2023/06/28 08:01:57;;;;;;;;;;;;;;;20.91;53.97;99973.59;10249447;28;1894;-66
2023/06/28 08:06:53;;;;;;;;;;;;;;;20.92;53.94;99975.28;10248714;28;927;-67
2023/06/28 08:11:49;;;;;;;;;;;;;;;20.93;54.04;99968.19;10248738;28;879;-67
2023/06/28 08:16:45;;;;;;;;;;;;;;;20.94;53.93;99984.00;10248314;28;919;-67
2023/06/28 08:21:41;;;;;;;;;;;;;;;20.94;54.20;99985.81;10247984;28;1947;-67
2023/06/28 08:26:37;;;;;;;;;;;;;;;20.93;54.20;99982.31;10248502;28;804;-66
2023/06/28 08:31:34;;;;;;;;;;;;;;;20.93;54.33;99977.00;10247803;28;1173;-67
2023/06/28 08:36:30;;;;;;;;;;;;;;;20.92;54.30;99977.09;10246088;28;1182;-67
2023/06/28 08:41:27;;;;;;;;;;;;;;;20.92;54.11;99991.19;10247613;28;1973;-67
2023/06/28 08:46:23;;;;;;;;;;;;;;;20.93;54.20;99997.34;10247732;28;910;-67
2023/06/28 08:51:19;;;;;;;;;;;;;;;20.98;54.14;99992.66;10246913;28;862;-67
2023/06/28 08:56:15;;;;;;;;;;;;;;;21.04;53.94;99981.75;10244530;28;1075;-66
2023/06/28 09:01:11;;;;;;;;;;;;;;;21.02;53.69;99979.16;10245921;28;1902;-66
2023/06/28 09:06:07;;;;;;;;;;;;;;;21.04;53.63;99981.75;10245817;28;768;-70
2023/06/28 09:11:03;;;;;;;;;;;;;;;21.04;53.67;99975.56;10246251;28;830;-70
2023/06/28 09:15:59;;;;;;;;;;;;;;;21.05;53.66;99966.69;10246037;28;771;-70
2023/06/28 09:20:54;;;;;;;;;;;;;;;21.08;53.18;99977.97;10245904;28;1902;-70
2023/06/28 09:25:50;;;;;;;;;;;;;;;21.09;53.31;99974.41;10246214;28;785;-67
2023/06/28 09:30:46;;;;;;;;;;;;;;;21.08;53.27;99985.06;10245726;28;1213;-66
2023/06/28 09:35:42;;;;;;;;;;;;;;;21.05;52.25;99987.91;10245965;28;881;-67
2023/06/28 09:40:38;;;;;;;;;;;;;;;21.05;52.58;99980.78;10244341;28;1930;-67
2023/06/28 09:45:36;;;;;;;;;;;;;;;21.06;52.78;99976.34;10244943;28;862;-67
2023/06/28 09:50:32;;;;;;;;;;;;;;;21.04;52.65;99971.13;10245467;28;872;-67
2023/06/28 09:55:28;;;;;;;;;;;;;;;21.04;52.76;99979.09;10244695;28;771;-67
2023/06/28 10:00:25;;;;;;;;;;;;;;;21.06;52.81;99971.03;10244437;28;1894;-67
2023/06/28 10:05:21;;;;;;;;;;;;;;;21.06;52.71;99971.88;10244372;28;1156;-67
2023/06/28 10:10:17;;;;;;;;;;;;;;;21.08;52.82;99970.03;10244081;28;919;-67
2023/06/28 10:15:12;;;;;;;;;;;;;;;21.03;52.68;99977.34;10244158;28;864;-67
2023/06/28 10:20:08;;;;;;;;;;;;;;;21.02;52.31;99967.72;10243728;28;1886;-67
2023/06/28 10:25:05;;;;;;;;;;;;;;;21.00;52.56;99981.03;10244558;28;818;-67
2023/06/28 10:30:01;;;;;;;;;;;;;;;21.01;52.41;99982.75;10243867;28;868;-67
2023/06/28 10:34:57;;;;;;;;;;;;;;;21.02;52.33;99979.16;10244948;28;1086;-67
2023/06/28 10:39:53;;;;;;;;;;;;;;;21.04;52.79;99983.50;10243487;28;1910;-67
2023/06/28 10:44:49;;;;;;;;;;;;;;;21.05;52.67;99987.91;10243581;28;795;-67
2023/06/28 10:49:45;;;;;;;;;;;;;;;21.05;52.48;99980.78;10244161;28;850;-67
2023/06/28 10:54:41;;;;;;;;;;;;;;;21.04;52.72;99972.91;10243567;28;996;-67
2023/06/28 10:59:37;;;;;;;;;;;;;;;21.02;52.48;99976.50;10243951;28;793;-67
2023/06/28 11:04:33;;;;;;;;;;;;;;;21.03;52.50;99974.72;10244285;28;1949;-67
2023/06/28 11:09:28;;;;;;;;;;;;;;;21.05;52.81;99966.69;10242983;28;764;-67
2023/06/28 11:14:27;;;;;;;;;;;;;;;21.09;52.18;99961.16;10243623;28;814;-67
2023/06/28 11:19:24;;;;;;;;;;;;;;;21.11;52.53;99961.91;10243541;28;871;-67
2023/06/28 11:24:20;;;;;;;;;;;;;;;21.11;52.38;99951.28;10243416;28;1894;-67
2023/06/28 11:29:16;;;;;;;;;;;;;;;21.14;52.35;99947.63;10244537;28;822;-67
2023/06/28 11:34:12;;;;;;;;;;;;;;;21.14;52.25;99956.47;10249626;28;1244;-67
2023/06/28 11:39:08;;;;;;;;;;;;;;;21.13;52.59;99945.94;10250491;28;909;-67
2023/06/28 11:44:04;;;;;;;;;;;;;;;21.11;52.55;99947.81;10249518;28;1910;-67
2023/06/28 11:49:00;;;;;;;;;;;;;;;21.12;52.76;99941.56;10249553;28;788;-67
2023/06/28 11:53:56;;;;;;;;;;;;;;;21.18;52.64;99935.94;10249300;28;794;-67
2023/06/28 11:58:52;;;;;;;;;;;;;;;21.17;52.64;99937.72;10249250;28;872;-67
2023/06/28 12:03:48;;;;;;;;;;;;;;;21.15;52.80;99939.59;10249164;28;1894;-67
2023/06/28 12:08:44;;;;;;;;;;;;;;;21.15;52.72;99944.91;10249303;28;858;-67
2023/06/28 12:13:39;;;;;;;;;;;;;;;21.18;52.67;99946.53;10248514;28;817;-67
2023/06/28 12:18:35;;;;;;;;;;;;;;;21.18;52.65;99942.09;10248387;28;887;-67
2023/06/28 12:23:31;;;;;;;;;;;;;;;21.17;52.78;99940.38;10248165;28;1953;-67
2023/06/28 12:28:27;;;;;;;;;;;;;;;21.17;52.78;99935.09;10247971;28;826;-65
2023/06/28 12:33:23;;;;;;;;;;;;;;;21.18;52.70;99936.78;10247857;28;1377;-66
2023/06/28 12:38:19;;;;;;;;;;;;;;;21.16;52.92;99936.00;10247585;28;980;-67
2023/06/28 12:43:15;;;;;;;;;;;;;;;21.15;52.76;99936.94;10246372;28;1923;-67
2023/06/28 12:48:11;;;;;;;;;;;;;;;21.13;53.00;99941.47;10247053;28;946;-67
2023/06/28 12:53:06;;;;;;;;;;;;;;;21.12;52.84;99945.06;10246151;28;913;-66
2023/06/28 12:58:02;;;;;;;;;;;;;;;21.13;52.88;99945.94;10247001;28;901;-66
2023/06/28 13:02:58;;;;;;;;;;;;;;;21.12;52.90;99953.03;10246869;28;1894;-67
2023/06/28 13:07:54;;;;;;;;;;;;;;;21.12;52.97;99954.81;10245580;28;938;-67
2023/06/28 13:12:50;;;;;;;;;;;;;;;21.10;52.93;99956.69;10247624;28;881;-67
2023/06/28 13:17:46;;;;;;;;;;;;;;;21.09;53.06;99971.75;10246273;28;869;-67
2023/06/28 13:22:42;;;;;;;;;;;;;;;21.08;52.99;99959.41;10245473;28;1894;-67
2023/06/28 13:27:38;;;;;;;;;;;;;;;21.09;53.09;99962.91;10245401;28;806;-67
2023/06/28 13:32:33;;;;;;;;;;;;;;;21.07;53.16;99955.06;10245049;28;1455;-67
2023/06/28 13:37:29;;;;;;;;;;;;;;;21.08;53.13;99958.56;10245732;28;795;-67
2023/06/28 13:42:25;;;;;;;;;;;;;;;21.07;53.18;99955.06;10245526;28;1910;-67
2023/06/28 13:47:21;;;;;;;;;;;;;;;21.07;53.21;99956.88;10245402;28;845;-66
2023/06/28 13:52:17;;;;;;;;;;;;;;;21.06;53.31;99950.69;10244440;28;854;-67
2023/06/28 13:57:14;;;;;;;;;;;;;;;21.07;53.26;99947.13;10244485;28;941;-67
2023/06/28 14:02:10;;;;;;;;;;;;;;;21.06;53.38;99948.03;10244848;28;1922;-66
2023/06/28 14:07:06;;;;;;;;;;;;;;;21.06;53.34;99941.88;10244040;28;869;-67
2023/06/28 14:12:01;;;;;;;;;;;;;;;21.05;53.36;99935.75;10243665;28;865;-67
2023/06/28 14:16:57;;;;;;;;;;;;;;;21.05;53.41;99937.53;10244066;28;949;-67
2023/06/28 14:21:53;;;;;;;;;;;;;;;21.06;53.45;99940.09;10244593;28;1953;-66
2023/06/28 14:26:52;;;;;;;;;;;;;;;21.06;53.47;99932.13;10244000;28;995;-67
2023/06/28 14:31:48;;;;;;;;;;;;;;;21.05;53.58;99933.09;10243904;28;1299;-67
2023/06/28 14:36:44;;;;;;;;;;;;;;;21.04;53.47;99934.03;10243973;28;956;-67
2023/06/28 14:41:39;;;;;;;;;;;;;;;21.04;53.46;99928.75;10243646;28;1975;-66
2023/06/28 14:46:35;;;;;;;;;;;;;;;21.05;53.59;99929.59;10244169;28;857;-67
2023/06/28 14:51:31;;;;;;;;;;;;;;;21.02;53.47;99931.47;10243533;28;929;-67
2023/06/28 14:56:27;;;;;;;;;;;;;;;21.03;53.53;99932.31;10243419;28;911;-67
2023/06/28 15:01:23;;;;;;;;;;;;;;;21.02;53.56;99928.81;10243027;28;1955;-67
2023/06/28 15:06:19;;;;;;;;;;;;;;;21.04;53.59;99928.75;10248706;28;854;-67
2023/06/28 15:11:15;;;;;;;;;;;;;;;21.05;53.42;99925.13;10251479;28;834;-67
2023/06/28 15:16:11;;;;;;;;;;;;;;;21.04;53.46;99912.84;10250640;28;1059;-67
2023/06/28 15:21:06;;;;;;;;;;;;;;;21.05;53.52;99918.97;10250474;28;1890;-67
2023/06/28 15:26:02;;;;;;;;;;;;;;;21.06;53.70;99908.28;10249989;28;894;-67
2023/06/28 15:30:58;;;;;;;;;;;;;;;21.06;53.45;99910.94;10250171;28;1106;-67
2023/06/28 15:35:54;;;;;;;;;;;;;;;21.06;53.62;99899.47;10250106;28;834;-67
2023/06/28 15:40:50;;;;;;;;;;;;;;;21.07;53.64;99893.25;10250255;28;1961;-67
2023/06/28 15:45:46;;;;;;;;;;;;;;;21.07;53.66;99895.91;10250340;28;871;-66
2023/06/28 15:50:42;;;;;;;;;;;;;;;21.09;53.54;99900.19;10248893;28;936;-67
2023/06/28 15:55:38;;;;;;;;;;;;;;;21.11;53.49;99895.63;10248636;28;1301;-67
2023/06/28 16:00:35;;;;;;;;;;;;;;;21.11;53.52;99892.97;10248950;28;1914;-66
2023/06/28 16:05:31;;;;;;;;;;;;;;;21.16;53.35;99890.09;10249925;28;875;-66
2023/06/28 16:10:27;;;;;;;;;;;;;;;21.34;52.92;99889.06;10248029;28;973;-67
2023/06/28 16:15:23;;;;;;;;;;;;;;;21.20;53.30;99883.69;10248499;28;869;-67
2023/06/28 16:20:19;;;;;;;;;;;;;;;21.13;53.69;99880.50;10248864;28;1903;-67
2023/06/28 16:25:14;;;;;;;;;;;;;;;21.10;53.57;99880.69;10248163;28;852;-67
2023/06/28 16:30:10;;;;;;;;;;;;;;;21.10;53.55;99870.09;10248527;28;855;-67
2023/06/28 16:35:06;;;;;;;;;;;;;;;21.11;53.61;99869.13;10247933;28;1293;-67
2023/06/28 16:40:03;;;;;;;;;;;;;;;21.09;53.67;99860.44;10248031;28;1903;-67
2023/06/28 16:44:58;;;;;;;;;;;;;;;21.07;53.67;99856.16;10247388;28;857;-67
2023/06/28 16:49:55;;;;;;;;;;;;;;;21.05;53.79;99856.22;10247191;28;871;-67
2023/06/28 16:54:51;;;;;;;;;;;;;;;21.04;53.93;99853.66;10248145;28;858;-67
2023/06/28 16:59:47;;;;;;;;;;;;;;;21.04;53.75;99865.13;10247426;28;915;-67
2023/06/28 17:04:43;;;;;;;;;;;;;;;21.02;53.90;99859.91;10247117;28;1965;-66
2023/06/28 17:09:38;;;;;;;;;;;;;;;21.02;53.91;99864.34;10246363;28;865;-67
2023/06/28 17:14:34;;;;;;;;;;;;;;;21.00;53.77;99863.56;10246226;28;913;-67
2023/06/28 17:19:30;;;;;;;;;;;;;;;21.00;53.99;99858.28;10246605;28;770;-67
2023/06/28 17:24:26;;;;;;;;;;;;;;;21.01;53.91;99859.97;10246548;28;1955;-67
2023/06/28 17:29:22;;;;;;;;;;;;;;;21.00;53.88;99863.56;10245178;28;942;-67
2023/06/28 17:34:18;;;;;;;;;;;;;;;20.99;53.78;99861.88;10245603;28;1345;-67
2023/06/28 17:39:14;;;;;;;;;;;;;;;20.99;53.83;99867.19;10245299;28;988;-67
2023/06/28 17:44:10;;;;;;;;;;;;;;;20.98;53.83;99861.00;10245112;28;1981;-67
2023/06/28 17:49:05;;;;;;;;;;;;;;;20.97;53.81;99861.09;10244994;28;841;-67
2023/06/28 17:54:01;;;;;;;;;;;;;;;20.96;53.86;99867.34;10245475;28;845;-66
2023/06/28 17:58:57;;;;;;;;;;;;;;;20.96;53.91;99867.34;10244608;28;889;-67
2023/06/28 18:03:53;;;;;;;;;;;;;;;20.95;53.94;99871.78;10243983;28;1902;-67
2023/06/28 18:08:49;;;;;;;;;;;;;;;20.94;54.01;99874.53;10244341;28;904;-67
2023/06/28 18:13:45;;;;;;;;;;;;;;;20.94;53.99;99870.06;10244305;28;805;-67
2023/06/28 18:18:41;;;;;;;;;;;;;;;20.92;53.94;99871.94;10244693;28;846;-67
2023/06/28 18:23:37;;;;;;;;;;;;;;;20.92;53.91;99874.59;10244776;28;1902;-67
2023/06/28 18:28:33;;;;;;;;;;;;;;;20.91;54.05;99870.25;10244429;28;760;-67
2023/06/28 18:33:29;;;;;;;;;;;;;;;20.91;54.04;99870.25;10244453;28;1702;-66
2023/06/28 18:38:25;;;;;;;;;;;;;;;20.92;54.02;99871.09;10244375;28;865;-67
2023/06/28 18:43:21;;;;;;;;;;;;;;;20.91;53.95;99867.59;10251897;28;1922;-67
2023/06/28 18:48:17;;;;;;;;;;;;;;;20.90;54.11;99863.22;10252397;28;850;-67
2023/06/28 18:53:13;;;;;;;;;;;;;;;20.90;54.07;99865.00;10251610;28;867;-66
2023/06/28 18:58:09;;;;;;;;;;;;;;;20.89;54.00;99866.81;10251417;28;871;-66
2023/06/28 19:03:05;;;;;;;;;;;;;;;20.89;54.11;99866.81;10251916;28;1898;-67
2023/06/28 19:08:01;;;;;;;;;;;;;;;20.90;54.23;99872.97;10251738;28;798;-67
2023/06/28 19:12:57;;;;;;;;;;;;;;;20.89;54.09;99865.97;10250971;28;802;-66
2023/06/28 19:17:53;;;;;;;;;;;;;;;20.88;54.03;99864.22;10250547;28;892;-67
2023/06/28 19:22:50;;;;;;;;;;;;;;;20.88;54.08;99870.41;10250454;28;1894;-67
2023/06/28 19:27:45;;;;;;;;;;;;;;;20.87;54.21;99860.75;10251378;28;851;-67
2023/06/28 19:32:41;;;;;;;;;;;;;;;20.87;54.22;99857.25;10248221;28;1470;-66
2023/06/28 19:37:37;;;;;;;;;;;;;;;20.87;54.19;99860.75;10248198;28;818;-67
2023/06/28 19:42:33;;;;;;;;;;;;;;;20.86;54.29;99867.00;10246710;28;1910;-67
2023/06/28 19:47:29;;;;;;;;;;;;;;;20.85;54.19;99870.56;10247292;28;862;-66
2023/06/28 19:52:26;;;;;;;;;;;;;;;20.86;54.18;99868.78;10248187;28;893;-67
2023/06/28 19:57:22;;;;;;;;;;;;;;;20.85;54.25;99865.25;10247527;28;1625;-67
2023/06/28 20:02:18;;;;;;;;;;;;;;;20.85;54.34;99867.06;10246854;28;1965;-67
2023/06/28 20:07:14;;;;;;;;;;;;;;;20.85;54.43;99869.72;10247270;28;854;-67
2023/06/28 20:12:11;;;;;;;;;;;;;;;20.84;54.28;99866.22;10247133;28;937;-67
2023/06/28 20:17:07;;;;;;;;;;;;;;;20.85;54.15;99867.06;10246838;28;869;-67
2023/06/28 20:22:03;;;;;;;;;;;;;;;20.84;54.35;99870.66;10245420;28;1890;-67
2023/06/28 20:27:03;;;;;;;;;;;;;;;20.83;54.37;99871.56;10246034;28;875;-67
2023/06/28 20:31:59;;;;;;;;;;;;;;;20.82;54.39;99869.88;10206364;28;1140975;-67
2023/06/28 20:36:55;;;;;;;;;;;;;;;20.83;54.31;99867.16;10247920;28;782;-67
2023/06/28 20:41:52;;;;;;;;;;;;;;;20.83;54.22;99863.63;10248481;28;1981;-66
2023/06/28 20:46:48;;;;;;;;;;;;;;;20.82;54.30;99885.78;10247292;28;847;-67
2023/06/28 20:51:43;;;;;;;;;;;;;;;20.82;54.28;99877.81;10248044;28;858;-67
2023/06/28 20:56:39;;;;;;;;;;;;;;;20.82;54.42;99878.69;10246397;28;897;-67
2023/06/28 21:01:35;;;;;;;;;;;;;;;20.82;54.35;99877.81;10246085;28;1897;-67
2023/06/28 21:06:31;;;;;;;;;;;;;;;20.81;54.46;99874.31;10247228;28;813;-67
2023/06/28 21:11:27;;;;;;;;;;;;;;;20.81;54.32;99873.47;10229537;28;814;-66
2023/06/28 21:16:23;;;;;;;;;;;;;;;20.81;54.25;99876.97;10246155;28;936;-67
2023/06/28 21:21:19;;;;;;;;;;;;;;;20.80;54.25;99869.94;10245537;28;1890;-67
2023/06/28 21:26:15;;;;;;;;;;;;;;;20.79;54.25;99863.78;10246403;28;802;-67
2023/06/28 21:31:11;;;;;;;;;;;;;;;20.80;54.26;99867.28;10244978;28;1276;-67
2023/06/28 21:36:07;;;;;;;;;;;;;;;20.79;54.34;99861.16;10245450;28;892;-67
2023/06/28 21:41:03;;;;;;;;;;;;;;;20.79;54.32;99863.78;10245169;28;1914;-67
2023/06/28 21:45:58;;;;;;;;;;;;;;;20.82;54.23;99869.88;10245177;28;859;-67
2023/06/28 21:50:55;;;;;;;;;;;;;;;20.78;54.28;99859.44;10245675;28;916;-67
2023/06/28 21:55:50;;;;;;;;;;;;;;;20.79;54.28;99860.31;10244953;28;751;-67
2023/06/28 22:00:46;;;;;;;;;;;;;;;20.78;54.41;99851.50;10245595;28;1906;-67
2023/06/28 22:05:42;;;;;;;;;;;;;;;20.79;54.33;99860.31;10243957;28;865;-67
2023/06/28 22:10:38;;;;;;;;;;;;;;;20.78;54.27;99856.81;10244992;28;850;-67
2023/06/28 22:15:35;;;;;;;;;;;;;;;20.78;54.44;99854.16;10244110;28;939;-66
2023/06/28 22:20:36;;;;;;;;;;;;;;;20.78;54.28;99859.44;10244134;28;1879;-67
2023/06/28 22:25:33;;;;;;;;;;;;;;;20.78;54.31;99858.59;10244274;28;816;-67
2023/06/28 22:30:28;;;;;;;;;;;;;;;20.78;54.14;99854.16;10244474;28;987;-67
2023/06/28 22:35:26;;;;;;;;;;;;;;;20.77;54.35;99847.13;10244325;28;1169;-67
2023/06/28 22:40:22;;;;;;;;;;;;;;;20.77;54.28;99848.94;10243615;28;1914;-67
2023/06/28 22:45:18;;;;;;;;;;;;;;;20.77;54.27;99848.94;10244289;28;768;-67
2023/06/28 22:50:13;;;;;;;;;;;;;;;20.75;54.43;99838.44;10243641;28;764;-69
2023/06/28 22:55:09;;;;;;;;;;;;;;;20.79;54.28;99847.06;10243718;28;841;-67
2023/06/28 23:00:05;;;;;;;;;;;;;;;20.76;54.40;99837.47;10243480;28;892;-66
2023/06/28 23:05:01;;;;;;;;;;;;;;;20.76;54.38;99832.19;10243310;28;1894;-67
2023/06/28 23:09:57;;;;;;;;;;;;;;;20.77;54.39;99833.03;10243309;28;863;-67
2023/06/28 23:14:53;;;;;;;;;;;;;;;20.76;54.36;99824.22;10243157;28;777;-67
2023/06/28 23:19:49;;;;;;;;;;;;;;;20.75;54.36;99825.19;10243014;28;868;-67
2023/06/28 23:24:45;;;;;;;;;;;;;;;20.75;54.30;99819.88;10243722;28;1898;-67
2023/06/28 23:29:43;;;;;;;;;;;;;;;20.75;54.32;99827.84;10250934;28;822;-67
2023/06/28 23:34:40;;;;;;;;;;;;;;;20.75;54.27;99825.19;10249992;28;1137;-67
2023/06/28 23:39:37;;;;;;;;;;;;;;;20.74;54.43;99820.81;10249998;28;850;-67
2023/06/28 23:44:38;;;;;;;;;;;;;;;20.74;54.23;99810.22;10249578;28;1910;-67
2023/06/28 23:49:34;;;;;;;;;;;;;;;20.74;54.29;99807.56;10250719;28;863;-67
2023/06/28 23:54:30;;;;;;;;;;;;;;;20.74;54.42;99799.63;10249384;28;891;-67
2023/06/28 23:59:27;;;;;;;;;;;;;;;20.74;54.38;99798.78;10249155;28;1026;-67
